createdAt,value
2022-10-11T00:03:09.695Z,15.63
2022-10-11T00:07:55.324Z,14.23
2022-10-11T00:12:40.713Z,15.18
2022-10-11T00:17:26.119Z,13.65
2022-10-11T00:22:14.061Z,13.25
2022-10-11T00:26:59.322Z,14.07
2022-10-11T00:31:44.689Z,12.57
2022-10-11T00:36:29.887Z,12.55
2022-10-11T00:41:19.069Z,13.10
2022-10-11T00:46:24.103Z,14.27
2022-10-11T00:51:20.101Z,13.93
2022-10-11T00:56:09.926Z,15.45
2022-10-11T01:00:58.050Z,15.13
2022-10-11T01:05:43.428Z,15.35
2022-10-11T01:10:29.317Z,16.15
2022-10-11T01:15:23.038Z,16.45
2022-10-11T01:20:38.607Z,17.02
2022-10-11T01:25:32.891Z,17.00
2022-10-11T01:30:27.462Z,17.92
2022-10-11T01:35:20.681Z,17.08
2022-10-11T01:40:10.373Z,17.00
2022-10-11T01:44:57.443Z,16.85
2022-10-11T01:49:46.319Z,17.02
2022-10-11T01:55:09.221Z,15.68
2022-10-11T02:00:03.655Z,16.50
2022-10-11T02:04:56.331Z,17.50
2022-10-11T02:09:48.325Z,19.20
2022-10-11T02:14:37.293Z,19.05
2022-10-11T02:19:29.379Z,18.50
2022-10-11T02:24:21.325Z,20.23
2022-10-11T02:29:11.032Z,20.13
2022-10-11T02:34:02.991Z,19.25
2022-10-11T02:38:52.864Z,19.40
2022-10-11T02:43:43.727Z,19.77
2022-10-11T02:48:30.251Z,18.40
2022-10-11T02:53:15.270Z,17.63
2022-10-11T02:58:00.663Z,18.10
2022-10-11T03:02:48.301Z,15.68
2022-10-11T03:07:33.910Z,15.55
2022-10-11T03:12:19.083Z,15.35
2022-10-11T03:17:30.950Z,15.48
2022-10-11T03:22:12.247Z,14.95
2022-10-11T03:26:57.909Z,15.18
2022-10-11T03:31:43.188Z,14.18
2022-10-11T03:36:28.230Z,13.77
2022-10-11T03:41:16.240Z,14.85
2022-10-11T03:46:01.440Z,14.32
2022-10-11T03:50:46.931Z,13.88
2022-10-11T03:55:32.223Z,13.32
2022-10-11T04:00:20.598Z,13.13
2022-10-11T04:05:06.725Z,13.57
2022-10-11T04:09:52.943Z,13.15
2022-10-11T04:14:37.987Z,12.75
2022-10-11T04:19:25.876Z,12.60
2022-10-11T04:24:12.655Z,11.35
2022-10-11T04:28:58.111Z,11.90
2022-10-11T04:33:43.189Z,12.57
2022-10-11T04:38:31.195Z,11.30
2022-10-11T04:43:16.942Z,11.27
2022-10-11T04:48:02.296Z,12.07
2022-10-11T04:52:47.393Z,11.75
2022-10-11T04:57:35.479Z,12.30
2022-10-11T05:02:22.419Z,12.18
2022-10-11T05:07:08.032Z,12.63
2022-10-11T05:11:53.035Z,12.18
2022-10-11T05:16:40.932Z,11.88
2022-10-11T05:21:27.984Z,12.25
2022-10-11T05:26:13.701Z,12.10
2022-10-11T05:30:59.023Z,11.15
2022-10-11T05:35:47.047Z,12.20
2022-10-11T05:40:33.520Z,18.95
2022-10-11T05:45:18.951Z,14.20
2022-10-11T05:50:04.028Z,13.57
2022-10-11T05:54:52.203Z,14.85
2022-10-11T05:59:38.520Z,14.70
2022-10-11T06:04:23.832Z,14.65
2022-10-11T06:09:08.853Z,14.27
2022-10-11T06:13:58.127Z,14.82
2022-10-11T06:18:44.017Z,15.23
2022-10-11T06:23:29.344Z,15.93
2022-10-11T06:28:14.419Z,16.55
2022-10-11T06:33:04.766Z,16.35
2022-10-11T06:37:51.508Z,15.13
2022-10-11T06:42:36.781Z,16.23
2022-10-11T06:47:21.884Z,16.73
2022-10-11T06:52:09.842Z,16.23
2022-10-11T06:56:54.863Z,16.98
2022-10-11T07:01:40.276Z,17.52
2022-10-11T07:06:27.422Z,17.98
2022-10-11T07:11:17.551Z,17.13
2022-10-11T07:16:04.526Z,15.80
2022-10-11T07:20:50.135Z,15.88
2022-10-11T07:25:35.176Z,16.15
2022-10-11T07:30:23.206Z,15.85
2022-10-11T07:35:09.069Z,16.23
2022-10-11T07:39:54.348Z,16.38
2022-10-11T07:44:39.450Z,17.83
2022-10-11T07:49:27.378Z,17.33
2022-10-11T07:54:12.491Z,19.10
2022-10-11T07:58:59.454Z,18.17
2022-10-11T08:03:44.506Z,20.13
2022-10-11T08:08:32.623Z,20.80
2022-10-11T08:13:17.769Z,23.35
2022-10-11T08:18:03.266Z,19.55
2022-10-11T08:22:48.327Z,23.92
2022-10-11T08:27:36.612Z,19.73
2022-10-11T08:32:21.632Z,21.45
2022-10-11T08:37:07.144Z,20.02
2022-10-11T08:41:57.635Z,19.67
2022-10-11T08:46:48.901Z,19.58
2022-10-11T08:51:37.199Z,21.08
2022-10-11T08:56:23.986Z,22.15
2022-10-11T09:01:16.719Z,18.15
2022-10-11T09:06:16.772Z,18.70
2022-10-11T09:11:08.939Z,17.88
2022-10-11T09:20:59.562Z,18.10
2022-10-11T09:25:56.124Z,18.30
2022-10-11T09:30:51.121Z,19.20
2022-10-11T09:35:41.447Z,18.65
2022-10-11T09:40:41.446Z,18.15
2022-10-11T09:45:29.368Z,18.83
2022-10-11T09:50:20.032Z,17.13
2022-10-11T09:55:06.395Z,17.13
2022-10-11T10:00:06.535Z,15.85
2022-10-11T10:05:20.133Z,15.73
2022-10-11T10:10:32.037Z,16.50
2022-10-11T10:15:22.079Z,14.27
2022-10-11T10:20:07.858Z,13.77
2022-10-11T10:24:57.032Z,12.57
2022-10-11T10:29:42.137Z,12.25
2022-10-11T10:34:32.440Z,12.57
2022-10-11T10:39:32.260Z,11.18
2022-10-11T10:44:20.224Z,11.65
2022-10-11T10:54:31.912Z,11.13
2022-10-11T10:59:37.926Z,10.05
2022-10-11T11:04:32.233Z,11.27
2022-10-11T11:09:30.054Z,9.85
2022-10-11T11:14:30.958Z,9.95
2022-10-11T11:19:29.924Z,10.55
2022-10-11T11:24:27.046Z,9.40
2022-10-11T11:29:31.830Z,8.13
2022-10-11T11:34:24.499Z,8.68
2022-10-11T11:39:16.640Z,10.13
2022-10-11T11:44:06.108Z,8.85
2022-10-11T11:48:56.676Z,11.25
2022-10-11T11:53:57.214Z,8.40
2022-10-11T11:58:51.702Z,9.45
2022-10-11T12:03:41.949Z,8.25
2022-10-11T12:08:34.763Z,7.90
2022-10-11T12:13:26.303Z,8.23
2022-10-11T12:18:19.591Z,8.13
2022-10-11T12:23:07.370Z,7.53
2022-10-11T12:27:57.818Z,8.65
2022-10-11T12:32:55.836Z,7.80
2022-10-11T12:37:54.332Z,7.88
2022-10-11T12:42:40.017Z,7.50
2022-10-11T12:47:43.065Z,7.15
2022-10-11T12:52:37.003Z,8.00
2022-10-11T12:57:47.963Z,7.53
2022-10-11T13:02:43.055Z,7.30
2022-10-11T13:07:28.217Z,8.15
2022-10-11T13:12:18.891Z,6.88
2022-10-11T13:17:11.193Z,7.57
2022-10-11T13:22:01.182Z,7.15
2022-10-11T13:26:48.656Z,7.07
2022-10-11T13:31:34.142Z,6.97
2022-10-11T13:36:21.304Z,6.35
2022-10-11T13:41:12.250Z,6.05
2022-10-11T13:45:58.885Z,6.57
2022-10-11T13:50:51.268Z,7.47
2022-10-11T13:55:38.611Z,6.47
2022-10-11T14:00:33.819Z,6.20
2022-10-11T14:05:27.032Z,6.60
2022-10-11T14:10:23.520Z,5.63
2022-10-11T14:15:10.142Z,6.00
2022-10-11T14:20:17.499Z,6.35
2022-10-11T14:25:02.832Z,6.63
2022-10-11T14:30:06.171Z,6.32
2022-10-11T14:34:54.174Z,5.72
2022-10-11T14:39:41.944Z,5.90
2022-10-11T14:44:27.563Z,6.05
2022-10-11T14:49:17.512Z,5.75
2022-10-11T14:54:02.840Z,6.20
2022-10-11T14:58:50.657Z,5.65
2022-10-11T15:03:36.565Z,5.35
2022-10-11T15:08:21.619Z,5.90
2022-10-11T15:13:07.623Z,5.38
2022-10-11T15:17:57.405Z,6.07
2022-10-11T15:22:42.768Z,5.60
2022-10-11T15:27:28.862Z,5.47
2022-10-11T15:32:14.153Z,5.50
2022-10-11T15:37:01.829Z,4.78
2022-10-11T15:41:47.146Z,4.53
2022-10-11T15:46:32.265Z,4.88
2022-10-11T15:51:18.056Z,4.35
2022-10-11T15:56:08.749Z,4.93
2022-10-11T16:00:56.806Z,5.78
2022-10-11T16:05:42.682Z,6.05
2022-10-11T16:10:28.376Z,5.20
2022-10-11T16:15:17.180Z,5.50
2022-10-11T16:20:02.602Z,5.70
2022-10-11T16:24:47.792Z,6.50
2022-10-11T16:29:33.117Z,6.07
2022-10-11T16:34:20.809Z,5.05
2022-10-11T16:39:09.885Z,5.70
2022-10-11T16:43:55.652Z,5.65
2022-10-11T16:48:41.027Z,5.32
2022-10-11T16:53:28.671Z,5.30
2022-10-11T16:58:13.982Z,5.43
2022-10-11T17:02:59.184Z,5.35
2022-10-11T17:07:44.544Z,5.50
2022-10-11T17:12:35.757Z,6.88
2022-10-11T17:17:21.995Z,6.03
2022-10-11T17:22:07.104Z,5.75
2022-10-11T17:26:52.429Z,6.10
2022-10-11T17:31:41.984Z,5.70
2022-10-11T17:36:34.173Z,5.40
2022-10-11T17:41:19.770Z,5.82
2022-10-11T17:46:09.057Z,5.63
2022-10-11T17:50:57.087Z,6.55
2022-10-11T17:55:44.707Z,6.32
2022-10-11T18:00:29.760Z,6.72
2022-10-11T18:05:16.879Z,6.50
2022-10-11T18:10:04.522Z,5.93
2022-10-11T18:14:51.434Z,6.65
2022-10-11T18:19:36.473Z,6.50
2022-10-11T18:24:21.823Z,6.95
2022-10-11T18:29:09.545Z,6.53
2022-10-11T18:33:56.096Z,6.10
2022-10-11T18:38:44.002Z,6.13
2022-10-11T18:43:29.325Z,7.03
2022-10-11T18:48:16.992Z,7.22
2022-10-11T18:53:02.303Z,6.70
2022-10-11T18:57:47.435Z,6.75
2022-10-11T19:02:35.830Z,8.52
2022-10-11T19:07:24.007Z,6.97
2022-10-11T19:12:09.649Z,7.85
2022-10-11T19:16:56.271Z,7.05
2022-10-11T19:21:42.069Z,6.78
2022-10-11T19:26:33.751Z,7.45
2022-10-11T19:31:19.722Z,7.35
2022-10-11T19:36:07.397Z,7.40
2022-10-11T19:40:53.211Z,6.75
2022-10-11T19:45:41.071Z,7.28
2022-10-11T19:50:26.412Z,7.43
2022-10-11T19:55:12.644Z,8.15
2022-10-11T19:59:58.131Z,7.55
2022-10-11T20:04:52.365Z,7.15
2022-10-11T20:09:38.562Z,7.85
2022-10-11T20:14:23.726Z,8.55
2022-10-11T20:19:08.989Z,7.60
2022-10-11T20:24:01.582Z,7.47
2022-10-11T20:28:49.454Z,8.35
2022-10-11T20:33:37.898Z,7.47
2022-10-11T20:38:23.442Z,8.80
2022-10-11T20:43:11.127Z,8.20
2022-10-11T20:47:56.511Z,9.10
2022-10-11T20:52:41.651Z,8.80
2022-10-11T20:57:27.120Z,7.93
2022-10-11T21:02:18.990Z,7.88
2022-10-11T21:07:04.789Z,8.40
2022-10-11T21:11:49.826Z,7.82
2022-10-11T21:16:36.747Z,8.35
2022-10-11T21:21:24.894Z,8.27
2022-10-11T21:26:12.277Z,8.82
2022-10-11T21:30:57.331Z,9.27
2022-10-11T21:35:43.104Z,8.40
2022-10-11T21:40:30.916Z,9.15
2022-10-11T21:45:16.763Z,9.55
2022-10-11T21:50:02.064Z,9.77
2022-10-11T21:54:47.376Z,8.68
2022-10-11T21:59:35.027Z,9.50
2022-10-11T22:04:20.389Z,9.32
2022-10-11T22:09:06.733Z,9.77
2022-10-11T22:13:52.247Z,9.80
2022-10-11T22:18:45.152Z,10.50
2022-10-11T22:23:30.202Z,10.55
2022-10-11T22:28:15.636Z,10.77
2022-10-11T22:33:02.073Z,11.52
2022-10-11T22:37:50.934Z,10.60
2022-10-11T22:42:36.015Z,10.32
2022-10-11T22:47:21.519Z,10.88
2022-10-11T22:52:06.630Z,10.73
2022-10-11T22:56:54.562Z,10.38
2022-10-11T23:01:39.682Z,11.02
2022-10-11T23:06:25.041Z,11.95
2022-10-11T23:11:10.924Z,12.18
2022-10-11T23:15:59.052Z,12.25
2022-10-11T23:20:44.138Z,12.43
2022-10-11T23:25:29.523Z,12.27
2022-10-11T23:30:16.349Z,13.38
2022-10-11T23:35:04.295Z,13.57
2022-10-11T23:39:49.384Z,14.65
2022-10-11T23:44:34.730Z,14.30
2022-10-11T23:49:19.798Z,14.23
2022-10-11T23:54:07.823Z,14.40
2022-10-11T23:58:52.891Z,14.77
